Time;durP1;ratioP1;P1;durP2;ratioP2;P2;SDS_P1;SDS_P2;PMS_P1;PMS_P2;Temp;Humidity;BMP_temperature;BMP_pressure;BME280_temperature;BME280_humidity;BME280_pressure;Samples;Min_cycle;Max_cycle;Signal;HPM_P1;HPM_P2
2020/12/18 00:01:27;;;;;;;4.32;1.17;;;25.40;89.80;;;;;;5071004;28;20399;-89
2020/12/18 00:03:55;;;;;;;4.50;1.27;;;25.00;91.50;;;;;;5056562;28;20450;-91
2020/12/18 00:06:23;;;;;;;3.20;0.90;;;24.70;92.60;;;;;;5067121;28;20402;-89
2020/12/18 00:08:51;;;;;;;3.08;1.40;;;24.50;93.30;;;;;;5057820;28;20400;-92
2020/12/18 00:11:26;;;;;;;3.35;1.00;;;24.30;93.90;;;;;;5058364;28;20382;-90
2020/12/18 00:13:54;;;;;;;3.00;1.20;;;24.10;94.20;;;;;;5073456;28;20383;-91
2020/12/18 00:16:23;;;;;;;6.72;1.50;;;24.00;94.50;;;;;;5065781;28;20450;-91
2020/12/18 00:18:51;;;;;;;5.50;1.35;;;23.90;94.60;;;;;;5064834;28;20739;-92
2020/12/18 00:21:23;;;;;;;3.80;1.30;;;24.30;94.50;;;;;;5053699;28;20401;-91
2020/12/18 00:23:51;;;;;;;3.72;1.40;;;23.90;94.90;;;;;;5072565;28;20395;-90
2020/12/18 00:26:19;;;;;;;6.30;1.33;;;23.90;94.40;;;;;;5054930;28;20380;-89
2020/12/18 00:28:47;;;;;;;3.00;1.20;;;23.80;94.60;;;;;;5071235;28;20380;-90
2020/12/18 00:31:15;;;;;;;4.40;1.10;;;23.70;94.80;;;;;;5056773;28;20384;-90
2020/12/18 00:33:43;;;;;;;2.88;1.10;;;23.60;94.90;;;;;;5054589;28;20392;-90
2020/12/18 00:36:11;;;;;;;2.80;0.98;;;23.60;95.20;;;;;;5056590;28;20467;-89
2020/12/18 00:38:39;;;;;;;3.67;1.20;;;23.60;95.10;;;;;;5053725;28;20915;-88
2020/12/18 00:41:06;;;;;;;4.07;0.88;;;23.50;95.00;;;;;;5062504;28;20395;-90
2020/12/18 00:43:35;;;;;;;3.72;0.90;;;23.40;94.80;;;;;;5051250;28;20403;-89
2020/12/18 00:46:04;;;;;;;2.10;0.85;;;23.40;95.00;;;;;;5063288;28;20392;-88
2020/12/18 00:48:32;;;;;;;3.03;0.65;;;23.50;95.20;;;;;;5038007;28;20412;-87
2020/12/18 00:50:59;;;;;;;3.67;0.90;;;23.60;94.40;;;;;;5068416;28;20821;-88
2020/12/18 00:53:26;;;;;;;1.75;0.73;;;23.80;94.40;;;;;;5057487;28;20447;-89
2020/12/18 00:55:54;;;;;;;0.75;0.60;;;23.80;94.00;;;;;;5038042;28;20443;-89
2020/12/18 00:58:21;;;;;;;3.28;0.88;;;23.90;93.70;;;;;;5059986;28;20392;-88
2020/12/18 01:00:48;;;;;;;3.35;0.85;;;23.90;93.70;;;;;;5056522;28;20388;-89
2020/12/18 01:03:16;;;;;;;1.20;0.70;;;24.00;93.90;;;;;;5062162;28;20393;-90
2020/12/18 01:05:43;;;;;;;0.90;0.60;;;24.00;93.10;;;;;;5057698;28;20475;-88
2020/12/18 01:08:10;;;;;;;3.40;0.60;;;24.10;92.60;;;;;;5057630;28;20473;-87
2020/12/18 01:10:38;;;;;;;1.08;0.50;;;24.30;92.30;;;;;;5065940;28;20378;-91
2020/12/18 01:13:05;;;;;;;1.02;0.52;;;24.40;92.00;;;;;;5061326;28;20470;-88
2020/12/18 01:15:32;;;;;;;2.20;0.60;;;24.40;91.70;;;;;;5060023;28;20387;-88
2020/12/18 01:18:00;;;;;;;4.22;0.60;;;24.40;91.70;;;;;;5054262;28;20422;-86
2020/12/18 01:20:27;;;;;;;0.90;0.40;;;24.50;91.10;;;;;;5057628;28;20391;-88
2020/12/18 01:22:54;;;;;;;0.80;0.40;;;24.50;90.00;;;;;;5059833;28;20408;-87
2020/12/18 01:25:21;;;;;;;1.30;0.50;;;24.60;90.00;;;;;;5059862;28;20404;-88
2020/12/18 01:27:49;;;;;;;0.90;0.40;;;24.70;86.70;;;;;;5057544;28;20393;-86
2020/12/18 01:30:16;;;;;;;2.50;0.55;;;24.90;89.00;;;;;;5052169;28;20883;-87
2020/12/18 01:32:43;;;;;;;1.37;0.30;;;25.20;88.50;;;;;;5050788;28;20418;-87
2020/12/18 01:35:10;;;;;;;2.20;0.52;;;25.50;87.30;;;;;;5050236;28;20404;-90
2020/12/18 01:37:38;;;;;;;0.82;0.32;;;25.80;84.70;;;;;;5062279;28;20378;-85
2020/12/18 01:40:05;;;;;;;0.75;0.40;;;25.80;81.10;;;;;;5066564;28;20386;-88
2020/12/18 01:42:33;;;;;;;1.07;0.30;;;26.00;82.20;;;;;;5064029;28;20422;-87
2020/12/18 01:45:00;;;;;;;0.98;0.30;;;26.20;79.10;;;;;;5035177;28;20382;-86
2020/12/18 01:47:32;;;;;;;0.50;0.20;;;26.40;80.70;;;;;;5049944;28;20395;-86
2020/12/18 01:50:05;;;;;;;1.10;0.28;;;26.70;76.80;;;;;;5052748;28;20367;-86
2020/12/18 01:52:33;;;;;;;0.30;0.20;;;26.80;78.50;;;;;;5049796;28;20455;-86
2020/12/18 01:55:07;;;;;;;1.30;0.30;;;27.00;77.50;;;;;;5055054;28;20392;-88
2020/12/18 01:57:37;;;;;;;2.50;0.20;;;27.10;74.40;;;;;;5049514;28;20391;-88
2020/12/18 02:00:09;;;;;;;0.60;0.20;;;27.30;74.20;;;;;;5031828;28;20384;-87
2020/12/18 02:02:47;;;;;;;1.17;0.20;;;27.40;77.20;;;;;;5052027;28;20460;-86
2020/12/18 02:05:14;;;;;;;1.10;0.22;;;27.60;77.90;;;;;;5056975;28;21068;-87
2020/12/18 02:07:54;;;;;;;0.40;0.20;;;27.70;77.30;;;;;;5065041;28;20376;-90
2020/12/18 02:10:22;;;;;;;0.63;0.45;;;27.80;75.80;;;;;;5055820;28;20450;-89
2020/12/18 02:12:49;;;;;;;2.15;0.50;;;27.90;76.00;;;;;;5031687;28;20961;-88
2020/12/18 02:15:18;;;;;;;1.30;0.40;;;27.80;73.90;;;;;;5056083;28;20386;-87
2020/12/18 02:17:45;;;;;;;0.63;0.40;;;27.80;75.10;;;;;;5055624;28;20483;-88
2020/12/18 02:20:12;;;;;;;0.80;0.30;;;27.80;73.20;;;;;;5055572;28;20394;-88
2020/12/18 02:22:39;;;;;;;1.98;0.32;;;27.80;71.70;;;;;;5056524;28;20404;-87
2020/12/18 02:25:09;;;;;;;1.58;0.30;;;27.80;74.90;;;;;;5050523;28;20371;-87
2020/12/18 02:27:40;;;;;;;1.55;0.45;;;27.90;72.20;;;;;;5056722;28;20506;-89
2020/12/18 02:30:13;;;;;;;0.60;0.30;;;27.90;71.70;;;;;;5065437;28;20374;-88
2020/12/18 02:32:40;;;;;;;1.65;0.30;;;27.90;73.00;;;;;;5068153;28;20474;-89
2020/12/18 02:35:07;;;;;;;0.20;0.20;;;28.00;75.20;;;;;;5031857;28;20467;-87
2020/12/18 02:37:35;;;;;;;0.68;0.20;;;28.00;72.60;;;;;;5050091;28;20437;-87
2020/12/18 02:40:04;;;;;;;1.00;0.17;;;28.10;70.70;;;;;;5050374;28;20433;-87
2020/12/18 02:42:32;;;;;;;1.33;0.22;;;28.00;70.30;;;;;;5053319;28;20407;-89
2020/12/18 02:44:59;;;;;;;2.25;0.20;;;28.00;72.40;;;;;;5049123;28;20448;-87
2020/12/18 02:47:26;;;;;;;0.45;0.30;;;28.00;71.30;;;;;;5048880;28;20423;-88
2020/12/18 02:49:53;;;;;;;0.68;0.40;;;28.10;72.30;;;;;;5049242;28;20372;-88
2020/12/18 02:52:21;;;;;;;0.90;0.10;;;28.10;71.70;;;;;;5051383;28;20387;-88
2020/12/18 02:54:52;;;;;;;0.77;0.30;;;28.10;70.30;;;;;;5053413;28;20875;-87
2020/12/18 02:57:19;;;;;;;0.93;0.30;;;28.30;72.60;;;;;;5052806;28;20444;-88
2020/12/18 02:59:47;;;;;;;1.30;0.32;;;28.50;72.10;;;;;;5057082;28;20729;-86
2020/12/18 03:02:14;;;;;;;0.30;0.20;;;28.60;71.40;;;;;;5073148;28;20421;-87
2020/12/18 03:04:42;;;;;;;0.20;0.10;;;28.80;70.60;;;;;;5072571;28;20382;-88
2020/12/18 03:07:10;;;;;;;2.20;0.20;;;28.80;66.60;;;;;;5073023;28;20443;-87
2020/12/18 03:09:37;;;;;;;1.27;0.17;;;28.70;68.40;;;;;;5057604;28;20406;-88
2020/12/18 03:12:04;;;;;;;0.40;0.20;;;28.70;68.70;;;;;;5037060;28;20406;-88
2020/12/18 03:14:32;;;;;;;1.10;0.10;;;28.80;67.90;;;;;;5043242;28;20386;-89
2020/12/18 03:16:59;;;;;;;1.20;0.10;;;28.70;67.00;;;;;;5033912;28;20390;-89
2020/12/18 03:19:26;;;;;;;1.30;0.20;;;28.60;66.50;;;;;;5039897;28;20374;-90
2020/12/18 03:21:53;;;;;;;0.30;0.20;;;28.50;68.20;;;;;;5051334;28;20446;-88
2020/12/18 03:24:21;;;;;;;0.95;0.20;;;28.50;69.30;;;;;;5053157;28;20382;-89
2020/12/18 03:26:48;;;;;;;0.85;0.22;;;28.30;66.90;;;;;;5039642;28;20383;-89
2020/12/18 03:29:15;;;;;;;0.90;0.25;;;28.30;69.00;;;;;;5017509;28;20386;-90
2020/12/18 03:31:44;;;;;;;0.30;0.20;;;28.30;70.60;;;;;;5041900;28;20923;-94
2020/12/18 03:34:11;;;;;;;1.90;0.40;;;28.30;69.90;;;;;;5017143;28;20390;-90
2020/12/18 03:36:40;;;;;;;1.30;0.20;;;28.30;69.10;;;;;;5038436;28;20456;-86
2020/12/18 03:39:08;;;;;;;0.22;0.15;;;28.20;69.00;;;;;;5051018;28;20515;-88
2020/12/18 03:41:35;;;;;;;0.47;0.30;;;28.00;70.40;;;;;;5051145;28;20458;-88
2020/12/18 03:44:03;;;;;;;1.10;0.30;;;28.00;71.30;;;;;;5041491;28;20385;-85
2020/12/18 03:46:30;;;;;;;1.17;0.30;;;27.90;71.50;;;;;;5025639;28;20413;-87
2020/12/18 03:48:58;;;;;;;0.50;0.30;;;27.90;70.70;;;;;;5040022;28;20396;-89
2020/12/18 03:51:25;;;;;;;1.40;0.30;;;28.00;71.80;;;;;;5053554;28;20388;-86
2020/12/18 03:53:52;;;;;;;1.60;0.28;;;28.10;71.10;;;;;;5058351;28;20472;-87
2020/12/18 03:56:20;;;;;;;0.95;0.30;;;28.00;71.00;;;;;;5054497;28;20483;-85
2020/12/18 03:58:47;;;;;;;0.50;0.30;;;28.00;72.30;;;;;;5050739;28;20388;-86
2020/12/18 04:01:15;;;;;;;1.45;0.30;;;28.00;73.20;;;;;;5063206;28;20830;-87
2020/12/18 04:03:42;;;;;;;0.75;0.38;;;28.00;73.40;;;;;;5051720;28;20404;-87
2020/12/18 04:06:10;;;;;;;1.20;0.40;;;27.80;73.70;;;;;;5044822;28;20389;-87
2020/12/18 04:08:37;;;;;;;3.50;0.47;;;27.70;73.70;;;;;;5040007;28;20427;-86
2020/12/18 04:11:04;;;;;;;1.30;0.40;;;27.60;74.60;;;;;;5030424;28;20436;-86
2020/12/18 04:13:32;;;;;;;1.63;0.32;;;27.60;75.50;;;;;;5031609;28;20393;-86
2020/12/18 04:15:59;;;;;;;0.57;0.40;;;27.60;75.90;;;;;;5040817;28;20419;-87
2020/12/18 04:18:26;;;;;;;1.25;0.40;;;27.60;76.50;;;;;;5033570;28;20403;-86
2020/12/18 04:20:53;;;;;;;0.30;0.28;;;27.50;76.60;;;;;;5052085;28;20441;-85
2020/12/18 04:23:21;;;;;;;0.97;0.20;;;27.50;76.00;;;;;;5050287;28;20828;-85
2020/12/18 04:25:50;;;;;;;0.43;0.22;;;27.40;75.70;;;;;;5051944;28;20388;-85
2020/12/18 04:28:17;;;;;;;0.80;0.35;;;27.30;75.60;;;;;;5029316;28;20387;-85
2020/12/18 04:30:44;;;;;;;0.50;0.30;;;27.20;76.40;;;;;;5035980;28;20377;-85
2020/12/18 04:33:12;;;;;;;1.00;0.40;;;27.10;76.70;;;;;;5030229;28;21004;-87
2020/12/18 04:35:39;;;;;;;0.73;0.40;;;27.00;76.90;;;;;;5030520;28;20376;-85
2020/12/18 04:38:12;;;;;;;0.40;0.30;;;26.90;78.00;;;;;;5041875;28;20431;-87
2020/12/18 04:40:41;;;;;;;1.48;0.30;;;26.80;78.00;;;;;;5049923;28;20380;-87
2020/12/18 04:43:08;;;;;;;2.25;0.20;;;26.70;78.00;;;;;;5050006;28;20432;-85
2020/12/18 04:45:37;;;;;;;1.63;0.40;;;26.70;77.90;;;;;;5050127;28;20392;-91
2020/12/18 04:48:11;;;;;;;0.50;0.40;;;26.60;78.00;;;;;;5067870;28;20392;-86
2020/12/18 04:50:38;;;;;;;1.50;0.40;;;26.40;78.90;;;;;;5069599;28;20394;-84
2020/12/18 04:53:06;;;;;;;1.38;0.40;;;26.40;79.20;;;;;;5070064;28;20386;-88
2020/12/18 04:55:36;;;;;;;1.80;0.43;;;26.30;81.90;;;;;;5068785;28;20390;-90
2020/12/18 04:58:04;;;;;;;1.70;0.38;;;26.20;83.10;;;;;;5070935;28;20893;-91
2020/12/18 05:00:31;;;;;;;1.90;0.60;;;26.00;85.40;;;;;;5048527;28;20391;-88
2020/12/18 05:03:01;;;;;;;1.70;0.50;;;25.90;85.70;;;;;;5050290;28;20396;-89
2020/12/18 05:05:28;;;;;;;1.73;0.40;;;25.70;86.10;;;;;;5050152;28;20827;-88
2020/12/18 05:07:55;;;;;;;1.58;0.35;;;25.70;86.90;;;;;;5045198;28;20471;-89
2020/12/18 05:10:23;;;;;;;0.63;0.40;;;25.60;86.80;;;;;;5032045;28;20380;-88
2020/12/18 05:12:50;;;;;;;0.52;0.40;;;25.60;86.50;;;;;;5031030;28;20781;-89
2020/12/18 05:15:18;;;;;;;0.40;0.30;;;25.50;87.50;;;;;;5033264;28;20391;-89
2020/12/18 05:17:47;;;;;;;2.13;0.70;;;25.40;87.70;;;;;;5030813;28;20421;-89
2020/12/18 05:20:16;;;;;;;0.98;0.40;;;25.40;88.90;;;;;;5032895;28;20749;-89
2020/12/18 05:22:43;;;;;;;2.17;0.85;;;25.30;89.90;;;;;;5047645;28;20455;-89
2020/12/18 05:25:11;;;;;;;1.27;0.43;;;25.20;90.30;;;;;;5020016;28;20382;-89
2020/12/18 05:27:41;;;;;;;2.60;0.70;;;24.90;91.00;;;;;;5038098;28;20411;-90
2020/12/18 05:30:12;;;;;;;2.13;0.90;;;25.00;91.10;;;;;;5046987;28;20385;-91
2020/12/18 05:32:39;;;;;;;2.33;0.70;;;24.70;91.80;;;;;;5037502;28;20424;-90
2020/12/18 05:35:10;;;;;;;3.20;0.68;;;24.60;92.50;;;;;;5023260;28;22185;-89
2020/12/18 05:37:39;;;;;;;3.00;0.75;;;24.20;93.10;;;;;;5028046;28;20388;-90
2020/12/18 05:40:07;;;;;;;3.10;0.70;;;24.00;94.70;;;;;;5050824;28;20467;-90
2020/12/18 05:42:43;;;;;;;2.07;1.00;;;23.90;95.00;;;;;;5050826;28;20407;-90
2020/12/18 05:45:17;;;;;;;1.63;0.73;;;23.90;95.40;;;;;;5047990;28;20403;-91
2020/12/18 05:47:59;;;;;;;4.38;0.73;;;23.80;95.10;;;;;;5019957;28;20458;-91
2020/12/18 05:50:35;;;;;;;1.90;0.70;;;23.70;95.60;;;;;;5051157;28;20383;-90
2020/12/18 05:53:07;;;;;;;2.53;0.75;;;23.80;94.90;;;;;;5051485;28;20384;-90
2020/12/18 05:55:40;;;;;;;1.92;0.80;;;23.80;94.30;;;;;;5031584;28;20430;-89
2020/12/18 05:58:13;;;;;;;3.28;1.00;;;23.90;94.40;;;;;;5045746;28;20390;-91
2020/12/18 06:00:41;;;;;;;2.05;0.70;;;24.00;94.70;;;;;;5071266;28;20889;-91
2020/12/18 06:03:11;;;;;;;1.30;0.70;;;24.00;94.30;;;;;;5054426;28;20434;-89
2020/12/18 06:05:39;;;;;;;1.27;0.70;;;24.00;94.20;;;;;;5050828;28;20404;-90
2020/12/18 06:08:16;;;;;;;2.05;0.68;;;24.00;94.60;;;;;;5051611;28;20481;-89
2020/12/18 06:10:44;;;;;;;1.87;0.67;;;24.00;94.80;;;;;;5035045;28;21196;-89
2020/12/18 06:13:12;;;;;;;1.27;0.80;;;24.00;95.40;;;;;;5040554;28;20390;-90
2020/12/18 06:15:41;;;;;;;4.10;0.80;;;23.90;95.60;;;;;;5046629;28;20383;-89
2020/12/18 06:18:17;;;;;;;2.65;0.60;;;23.90;95.10;;;;;;5050470;28;20372;-89
2020/12/18 06:20:45;;;;;;;1.88;0.70;;;23.90;95.30;;;;;;5050971;28;20933;-90
2020/12/18 06:23:16;;;;;;;3.40;0.93;;;23.60;95.50;;;;;;5050938;28;20809;-87
2020/12/18 06:25:43;;;;;;;3.08;0.73;;;23.90;95.90;;;;;;5069338;28;20457;-86
2020/12/18 06:28:10;;;;;;;1.70;0.80;;;23.90;96.00;;;;;;5055594;28;20382;-87
2020/12/18 06:30:38;;;;;;;1.25;0.88;;;23.90;96.10;;;;;;5041201;28;20387;-87
2020/12/18 06:33:06;;;;;;;1.90;1.00;;;23.90;96.50;;;;;;5035199;28;20460;-88
2020/12/18 06:35:35;;;;;;;4.00;1.20;;;23.90;97.00;;;;;;5053718;28;20375;-85
2020/12/18 06:38:18;;;;;;;2.55;0.90;;;24.00;97.00;;;;;;5053075;28;20383;-86
2020/12/18 06:40:46;;;;;;;1.75;0.95;;;24.00;97.00;;;;;;5034088;28;20374;-87
2020/12/18 06:43:13;;;;;;;3.20;1.40;;;24.10;97.10;;;;;;5035133;28;20456;-86
2020/12/18 06:45:41;;;;;;;3.10;1.10;;;24.30;97.30;;;;;;5040752;28;20401;-86
2020/12/18 06:48:30;;;;;;;2.72;1.15;;;24.50;96.90;;;;;;5073140;28;20413;-86
2020/12/18 06:50:57;;;;;;;1.50;0.90;;;24.80;96.10;;;;;;5072630;28;20506;-87
2020/12/18 06:53:24;;;;;;;1.77;1.00;;;24.90;94.20;;;;;;5066676;28;20370;-86
2020/12/18 06:55:52;;;;;;;5.93;1.00;;;25.10;94.30;;;;;;5070421;28;20431;-87
2020/12/18 06:58:28;;;;;;;2.88;1.35;;;24.80;92.70;;;;;;5068312;28;20382;-87
2020/12/18 07:01:00;;;;;;;4.47;1.10;;;24.50;92.20;;;;;;5072829;28;20499;-88
2020/12/18 07:03:40;;;;;;;3.67;1.17;;;24.00;91.60;;;;;;5072334;28;20492;-86
2020/12/18 07:06:12;;;;;;;2.13;1.00;;;23.80;91.80;;;;;;5072589;28;20378;-88
2020/12/18 07:08:41;;;;;;;4.97;1.20;;;23.50;92.00;;;;;;5073034;28;20389;-87
2020/12/18 07:11:12;;;;;;;4.60;1.20;;;23.40;92.40;;;;;;5072355;28;20374;-86
2020/12/18 07:13:50;;;;;;;3.90;1.20;;;23.30;92.80;;;;;;5071862;28;20389;-88
2020/12/18 07:16:25;;;;;;;4.65;1.15;;;23.20;93.10;;;;;;5054429;28;20455;-87
2020/12/18 07:19:03;;;;;;;2.38;0.93;;;23.10;92.70;;;;;;5072448;28;20374;-86
2020/12/18 07:21:31;;;;;;;6.05;1.17;;;23.10;92.90;;;;;;5070351;28;20389;-85
2020/12/18 07:23:58;;;;;;;3.90;1.13;;;23.00;92.40;;;;;;5066334;28;20402;-87
2020/12/18 07:26:25;;;;;;;6.13;1.35;;;23.00;93.20;;;;;;5071860;28;20385;-89
2020/12/18 07:28:53;;;;;;;6.65;1.52;;;22.90;92.70;;;;;;5053997;28;20390;-87
2020/12/18 07:31:22;;;;;;;5.47;1.35;;;22.80;92.80;;;;;;5068639;28;20389;-86
2020/12/18 07:33:55;;;;;;;6.15;1.40;;;22.70;93.40;;;;;;5052059;28;20384;-87
2020/12/18 07:36:23;;;;;;;3.90;1.10;;;22.60;93.80;;;;;;5052930;28;20886;-88
2020/12/18 07:38:51;;;;;;;4.07;1.10;;;22.60;93.70;;;;;;5072179;28;20390;-94
2020/12/18 07:41:30;;;;;;;4.30;1.30;;;22.60;94.20;;;;;;5074240;28;20377;-93
2020/12/18 07:44:11;;;;;;;9.88;3.15;;;22.40;95.20;;;;;;5074052;28;20861;-92
2020/12/18 07:46:45;;;;;;;17.73;4.38;;;22.20;96.40;;;;;;5071846;28;20413;-93
2020/12/18 07:49:13;;;;;;;17.77;4.63;;;22.00;97.10;;;;;;5047325;28;20423;-94
2020/12/18 07:51:42;;;;;;;22.38;4.82;;;21.90;97.90;;;;;;5058050;28;20386;-91
2020/12/18 07:54:16;;;;;;;21.47;5.40;;;21.80;98.50;;;;;;5018099;28;20382;-94
2020/12/18 07:56:43;;;;;;;24.23;5.53;;;21.70;98.50;;;;;;5052975;28;20384;-91
2020/12/18 07:59:13;;;;;;;29.05;6.28;;;21.70;98.80;;;;;;5026657;28;20396;-91
2020/12/18 08:01:45;;;;;;;25.95;5.75;;;21.70;99.00;;;;;;5041025;28;20411;-94
2020/12/18 08:04:29;;;;;;;24.83;5.17;;;21.70;99.20;;;;;;5035145;28;20513;-94
2020/12/18 08:07:02;;;;;;;23.92;5.90;;;21.10;98.60;;;;;;5028813;28;21214;-88
2020/12/18 08:09:29;;;;;;;23.00;4.95;;;21.80;98.70;;;;;;5055445;28;20408;-89
2020/12/18 08:12:00;;;;;;;27.57;5.70;;;21.80;98.90;;;;;;5047836;28;20386;-92
2020/12/18 08:14:28;;;;;;;25.00;5.38;;;21.80;98.70;;;;;;5042739;28;20399;-90
2020/12/18 08:16:55;;;;;;;21.95;5.22;;;21.80;98.70;;;;;;5058119;28;20397;-90
2020/12/18 08:19:22;;;;;;;19.40;5.05;;;21.80;99.20;;;;;;5055489;28;20402;-88
2020/12/18 08:21:49;;;;;;;19.83;5.05;;;21.80;99.00;;;;;;5034187;28;20891;-89
2020/12/18 08:24:36;;;;;;;21.42;5.40;;;21.80;98.80;;;;;;5054369;28;20394;-88
2020/12/18 08:27:05;;;;;;;22.48;5.45;;;21.80;98.30;;;;;;5055549;28;20367;-88
2020/12/18 08:29:35;;;;;;;25.42;6.07;;;21.80;98.20;;;;;;5051561;28;20380;-86
2020/12/18 08:32:05;;;;;;;25.65;5.63;;;21.80;98.10;;;;;;5050874;28;20370;-87
2020/12/18 08:34:35;;;;;;;24.70;5.90;;;21.70;98.10;;;;;;5050638;28;20379;-88
2020/12/18 08:37:03;;;;;;;25.90;5.65;;;21.70;98.40;;;;;;5067693;28;20465;-88
2020/12/18 08:39:34;;;;;;;25.92;5.82;;;21.60;98.60;;;;;;5070724;28;20382;-87
2020/12/18 08:42:03;;;;;;;25.10;6.40;;;21.50;98.70;;;;;;5070461;28;20482;-86
2020/12/18 08:44:44;;;;;;;25.20;6.00;;;21.50;98.90;;;;;;5038955;28;20492;-87
2020/12/18 08:47:42;;;;;;;33.88;6.43;;;21.40;99.00;;;;;;5039749;28;20514;-86
2020/12/18 08:50:18;;;;;;;28.67;6.70;;;21.40;99.20;;;;;;5020604;28;20460;-86
2020/12/18 08:52:49;;;;;;;29.10;6.25;;;21.40;99.30;;;;;;5057741;28;20382;-87
2020/12/18 08:55:22;;;;;;;22.50;5.97;;;21.40;99.20;;;;;;5052914;28;20396;-87
2020/12/18 08:57:49;;;;;;;26.60;6.10;;;21.40;99.20;;;;;;5063754;28;20382;-87
2020/12/18 09:00:20;;;;;;;30.38;6.50;;;21.40;99.20;;;;;;5053478;28;20360;-88
2020/12/18 09:02:50;;;;;;;30.35;6.60;;;21.40;99.20;;;;;;5031893;28;20410;-88
2020/12/18 09:05:30;;;;;;;26.52;6.05;;;21.40;99.40;;;;;;5050237;28;20454;-87
2020/12/18 09:08:01;;;;;;;33.70;6.73;;;21.40;99.30;;;;;;5050261;28;20387;-89
2020/12/18 09:10:31;;;;;;;29.05;6.15;;;21.40;99.40;;;;;;5050621;28;20375;-88
2020/12/18 09:13:17;;;;;;;33.03;7.23;;;21.30;99.50;;;;;;5047039;28;20392;-86
2020/12/18 09:16:07;;;;;;;30.15;6.25;;;21.40;99.50;;;;;;5051555;28;21292;-86
2020/12/18 09:18:44;;;;;;;33.70;6.87;;;21.40;99.70;;;;;;5047463;28;20805;-86
2020/12/18 09:21:13;;;;;;;25.02;6.53;;;21.30;99.50;;;;;;5045106;28;20409;-86
2020/12/18 09:23:42;;;;;;;32.87;7.43;;;21.40;99.60;;;;;;5031090;28;20392;-86
2020/12/18 09:26:09;;;;;;;33.60;7.10;;;21.30;99.50;;;;;;5049688;28;20427;-86
2020/12/18 09:28:42;;;;;;;30.23;7.20;;;21.30;99.50;;;;;;5049505;28;20390;-86
2020/12/18 09:31:10;;;;;;;30.80;7.30;;;21.40;99.50;;;;;;5045264;28;20393;-87
2020/12/18 09:33:39;;;;;;;28.48;7.13;;;21.30;99.50;;;;;;5025984;28;20431;-87
2020/12/18 09:36:12;;;;;;;32.60;7.70;;;21.30;99.70;;;;;;5046569;28;20467;-86
2020/12/18 09:38:42;;;;;;;36.08;8.20;;;21.30;99.80;;;;;;5056912;28;20738;-86
2020/12/18 09:41:20;;;;;;;37.13;8.33;;;21.30;99.70;;;;;;5038376;28;20434;-90
2020/12/18 09:43:49;;;;;;;34.55;7.75;;;21.30;99.50;;;;;;5039542;28;20743;-88
2020/12/18 09:46:18;;;;;;;41.30;9.52;;;21.30;99.60;;;;;;5040251;28;20412;-85
2020/12/18 09:48:47;;;;;;;39.33;8.02;;;21.30;99.70;;;;;;5044298;28;20402;-87
2020/12/18 09:51:16;;;;;;;42.67;8.73;;;21.30;99.40;;;;;;5044859;28;20409;-89
2020/12/18 09:53:44;;;;;;;50.03;9.77;;;21.20;99.10;;;;;;5045406;28;20461;-88
2020/12/18 09:56:15;;;;;;;45.75;9.20;;;21.10;99.30;;;;;;5045433;28;20383;-88
2020/12/18 09:58:46;;;;;;;43.55;9.02;;;21.00;99.60;;;;;;5046949;28;20486;-88
2020/12/18 10:01:20;;;;;;;44.05;8.95;;;21.00;99.50;;;;;;5046139;28;20380;-88
2020/12/18 10:03:47;;;;;;;42.28;9.05;;;21.00;99.50;;;;;;5056226;28;20396;-87
2020/12/18 10:06:14;;;;;;;39.10;8.02;;;21.00;99.30;;;;;;5051372;28;20392;-86
2020/12/18 10:08:42;;;;;;;49.03;8.98;;;21.00;99.30;;;;;;5046837;28;20379;-86
2020/12/18 10:11:09;;;;;;;43.78;8.88;;;20.90;99.30;;;;;;5059135;28;20467;-87
2020/12/18 10:13:36;;;;;;;36.78;8.27;;;20.90;99.30;;;;;;5046334;28;20712;-88
2020/12/18 10:16:03;;;;;;;37.00;8.82;;;20.90;99.30;;;;;;5046965;28;20406;-87
2020/12/18 10:18:31;;;;;;;40.22;8.50;;;20.80;99.40;;;;;;5047038;28;20470;-86
2020/12/18 10:21:03;;;;;;;49.72;9.38;;;20.70;99.20;;;;;;5046415;28;20733;-86
2020/12/18 10:23:30;;;;;;;43.28;9.25;;;20.70;99.20;;;;;;5044936;28;20504;-87
2020/12/18 10:25:58;;;;;;;48.05;8.90;;;20.70;99.10;;;;;;5048087;28;20409;-88
2020/12/18 10:28:26;;;;;;;49.47;9.13;;;20.60;98.90;;;;;;5054084;28;20389;-85
2020/12/18 10:30:56;;;;;;;43.67;8.95;;;20.60;98.90;;;;;;5063597;28;20942;-87
2020/12/18 10:33:23;;;;;;;45.55;8.52;;;20.60;98.80;;;;;;5045575;28;20483;-87
2020/12/18 10:35:51;;;;;;;48.43;9.40;;;20.60;98.70;;;;;;5045545;28;20379;-87
2020/12/18 10:38:24;;;;;;;43.08;9.32;;;20.60;98.80;;;;;;5056338;28;20429;-88
2020/12/18 10:40:52;;;;;;;41.25;8.63;;;20.50;99.00;;;;;;5036899;28;20397;-88
2020/12/18 10:43:19;;;;;;;42.08;8.45;;;20.50;99.20;;;;;;5044069;28;20412;-88
2020/12/18 10:45:46;;;;;;;38.22;8.85;;;20.50;98.90;;;;;;5023571;28;20403;-86
2020/12/18 10:48:17;;;;;;;42.17;8.70;;;20.40;98.90;;;;;;5061421;28;20389;-87
2020/12/18 10:50:44;;;;;;;45.92;9.20;;;20.40;98.90;;;;;;5034741;28;20391;-86
2020/12/18 10:53:11;;;;;;;40.05;8.55;;;20.40;98.80;;;;;;5044652;28;20403;-88
2020/12/18 10:55:38;;;;;;;41.47;9.15;;;20.30;98.90;;;;;;5045819;28;20443;-87
2020/12/18 10:58:05;;;;;;;47.78;9.52;;;20.30;98.90;;;;;;5033634;28;20408;-86
2020/12/18 11:00:32;;;;;;;48.60;9.15;;;20.20;98.80;;;;;;5036028;28;20908;-88
2020/12/18 11:02:59;;;;;;;42.63;8.27;;;20.20;99.00;;;;;;5007547;28;20417;-87
2020/12/18 11:05:28;;;;;;;42.50;9.23;;;20.20;98.80;;;;;;5031058;28;20401;-85
2020/12/18 11:07:55;;;;;;;51.77;10.07;;;20.30;99.00;;;;;;5025232;28;20757;-87
2020/12/18 11:10:22;;;;;;;42.72;8.88;;;20.20;99.00;;;;;;5026404;28;20508;-86
2020/12/18 11:12:49;;;;;;;42.63;8.88;;;20.20;98.90;;;;;;5016771;28;20872;-88
2020/12/18 11:15:17;;;;;;;40.17;9.37;;;20.20;98.90;;;;;;5042288;28;20978;-86
2020/12/18 11:17:44;;;;;;;37.95;7.70;;;20.20;98.90;;;;;;5023112;28;20768;-86
2020/12/18 11:20:12;;;;;;;41.57;8.33;;;20.20;98.90;;;;;;5040863;28;20397;-86
2020/12/18 11:22:40;;;;;;;44.50;8.93;;;20.20;98.50;;;;;;5048656;28;20897;-85
2020/12/18 11:25:07;;;;;;;38.83;8.20;;;20.20;98.50;;;;;;5041873;28;20403;-84
2020/12/18 11:27:34;;;;;;;36.83;8.00;;;20.20;98.60;;;;;;5025388;28;20424;-84
2020/12/18 11:30:02;;;;;;;39.22;7.60;;;20.20;98.60;;;;;;5044917;28;21079;-85
2020/12/18 11:32:29;;;;;;;38.78;8.45;;;19.90;98.50;;;;;;5049303;28;20395;-86
2020/12/18 11:34:56;;;;;;;34.00;7.43;;;20.10;98.70;;;;;;5050573;28;20787;-85
2020/12/18 11:37:23;;;;;;;35.90;7.57;;;20.20;98.70;;;;;;5051765;28;20917;-85
2020/12/18 11:39:51;;;;;;;38.92;7.78;;;20.20;98.60;;;;;;5048053;28;20431;-85
2020/12/18 11:42:20;;;;;;;34.65;7.10;;;20.10;98.50;;;;;;5050757;28;20423;-87
2020/12/18 11:44:48;;;;;;;32.20;6.85;;;20.10;98.60;;;;;;5049600;28;20399;-88
2020/12/18 11:47:15;;;;;;;37.72;7.53;;;20.00;98.80;;;;;;5053536;28;20933;-90
2020/12/18 11:49:42;;;;;;;41.65;7.82;;;19.90;99.00;;;;;;5033601;28;20466;-89
2020/12/18 11:52:10;;;;;;;47.30;8.65;;;19.90;99.10;;;;;;5052273;28;20401;-89
2020/12/18 11:54:37;;;;;;;37.13;7.53;;;19.90;99.30;;;;;;5053385;28;20399;-88
2020/12/18 11:57:05;;;;;;;44.92;8.13;;;19.90;99.40;;;;;;5046724;28;20399;-88
2020/12/18 11:59:33;;;;;;;39.53;7.35;;;19.80;99.30;;;;;;5041360;28;20476;-88
2020/12/18 12:02:00;;;;;;;34.72;7.20;;;19.90;99.50;;;;;;5031783;28;21588;-87
2020/12/18 12:04:28;;;;;;;32.10;7.40;;;19.80;99.50;;;;;;5035400;28;20963;-87
2020/12/18 12:06:55;;;;;;;37.20;7.47;;;19.80;99.60;;;;;;5031990;28;20440;-89
2020/12/18 12:09:22;;;;;;;38.97;7.78;;;19.80;99.40;;;;;;5041787;28;20402;-89
2020/12/18 12:11:50;;;;;;;36.47;7.90;;;19.70;99.50;;;;;;5031647;28;20470;-87
2020/12/18 12:14:17;;;;;;;39.85;7.65;;;19.70;99.60;;;;;;5033890;28;20387;-88
2020/12/18 12:16:45;;;;;;;38.28;8.80;;;19.60;99.80;;;;;;5031174;28;20459;-88
2020/12/18 12:19:12;;;;;;;42.22;8.30;;;19.60;99.90;;;;;;5046901;28;20429;-89
2020/12/18 12:21:40;;;;;;;44.83;8.95;;;19.60;99.70;;;;;;5031862;28;20395;-88
2020/12/18 12:24:07;;;;;;;35.33;7.30;;;19.60;99.80;;;;;;5031747;28;20864;-87
2020/12/18 12:26:35;;;;;;;40.60;8.35;;;19.60;99.90;;;;;;5019997;28;20423;-87
2020/12/18 12:29:03;;;;;;;40.88;8.13;;;19.60;99.90;;;;;;5037826;28;20948;-87
2020/12/18 12:31:30;;;;;;;38.50;8.10;;;19.50;99.80;;;;;;5032967;28;20391;-87
2020/12/18 12:33:57;;;;;;;40.55;7.40;;;19.50;99.90;;;;;;5034744;28;20435;-87
2020/12/18 12:36:26;;;;;;;38.23;7.60;;;19.50;99.90;;;;;;5032555;28;21125;-88
2020/12/18 12:38:53;;;;;;;42.50;8.13;;;19.40;99.80;;;;;;5042792;28;20401;-86
2020/12/18 12:41:21;;;;;;;34.22;6.82;;;19.40;99.90;;;;;;5036036;28;20397;-87
2020/12/18 12:43:48;;;;;;;40.22;8.10;;;19.40;99.90;;;;;;5038552;28;20405;-87
2020/12/18 12:46:15;;;;;;;37.80;7.65;;;19.40;99.90;;;;;;5036377;28;21346;-86
2020/12/18 12:48:43;;;;;;;36.60;6.88;;;19.40;99.90;;;;;;5029968;28;20409;-86
2020/12/18 12:51:13;;;;;;;35.10;6.47;;;19.40;99.90;;;;;;5038298;28;20475;-87
2020/12/18 12:53:41;;;;;;;39.42;6.85;;;19.40;99.90;;;;;;5033076;28;20410;-86